Time;durP1;ratioP1;P1;durP2;ratioP2;P2;SDS_P1;SDS_P2;PMS_P1;PMS_P2;Temp;Humidity;BMP_temperature;BMP_pressure;BME280_temperature;BME280_humidity;BME280_pressure;Samples;Min_cycle;Max_cycle;Signal;HPM_P1;HPM_P2
2022/04/29 00:00:25;;;;;;;11.40;4.35;;;;;;;-142.75;100.00;79033.63;5029485;28;20029;-66
2022/04/29 00:02:51;;;;;;;6.95;4.07;;;;;;;-142.75;100.00;79043.47;5028153;28;20375;-66
2022/04/29 00:05:17;;;;;;;;;;;;;;;-142.75;100.00;79043.47;5029847;28;20022;-66
2022/04/29 00:07:42;;;;;;;8.80;4.77;;;;;;;-142.75;100.00;79027.69;5029207;28;19913;-66
2022/04/29 00:10:12;;;;;;;9.45;3.45;;;;;;;-142.75;100.00;79035.59;5029661;28;20026;-65
2022/04/29 00:12:46;;;;;;;8.47;4.23;;;;;;;-142.75;100.00;79033.63;5029001;28;20030;-66
2022/04/29 00:15:13;;;;;;;10.63;4.00;;;;;;;-142.75;100.00;79033.63;5030036;28;20025;-66
2022/04/29 00:17:39;;;;;;;8.23;4.17;;;;;;;-142.75;100.00;79023.75;5047821;28;20035;-66
2022/04/29 00:20:06;;;;;;;7.97;3.80;;;;;;;-142.75;100.00;79023.75;5049032;28;20029;-66
2022/04/29 00:22:31;;;;;;;10.90;4.53;;;;;;;-142.75;100.00;79023.75;5048813;28;20024;-66
2022/04/29 00:24:56;;;;;;;8.73;4.17;;;;;;;-142.75;100.00;79021.78;5047561;28;20029;-67
2022/04/29 00:27:22;;;;;;;6.45;3.33;;;;;;;-142.75;100.00;79025.72;5047384;28;20274;-66
2022/04/29 00:29:47;;;;;;;7.93;4.07;;;;;;;-142.75;100.00;79039.53;5048992;28;20112;-65
2022/04/29 00:32:12;;;;;;;7.10;3.60;;;;;;;-142.75;100.00;79037.56;5048532;28;20024;-66
2022/04/29 00:34:38;;;;;;;6.10;4.00;;;;;;;-142.75;100.00;79039.53;5048824;28;20095;-66
2022/04/29 00:37:03;;;;;;;10.55;3.80;;;;;;;-142.75;100.00;79049.38;5048780;28;20021;-66
2022/04/29 00:39:28;;;;;;;6.07;4.25;;;;;;;-142.75;100.00;79055.28;5048999;28;20029;-65
2022/04/29 00:41:54;;;;;;;7.70;4.00;;;;;;;-142.75;100.00;79055.28;5048167;28;20044;-65
2022/04/29 00:44:19;;;;;;;7.30;3.60;;;;;;;-142.75;100.00;79055.28;5048877;28;20025;-66
2022/04/29 00:46:46;;;;;;;13.25;4.50;;;;;;;-142.75;100.00;79059.22;5047418;28;20028;-66
2022/04/29 00:49:13;;;;;;;7.67;3.80;;;;;;;-142.75;100.00;79063.16;5028902;28;20029;-66
2022/04/29 00:51:41;;;;;;;8.40;3.43;;;;;;;-142.75;100.00;79065.13;5028464;28;20025;-66
2022/04/29 00:54:18;;;;;;;6.23;3.80;;;;;;;-142.75;100.00;79067.09;5028754;28;20029;-65
2022/04/29 00:56:46;;;;;;;8.77;4.07;;;;;;;-142.75;100.00;79098.63;5028929;28;20018;-66
2022/04/29 00:59:15;;;;;;;8.40;4.10;;;;;;;-142.75;100.00;79088.75;5028779;28;20036;-66
2022/04/29 01:01:43;;;;;;;9.53;4.33;;;;;;;-142.75;100.00;79084.81;5028484;28;20099;-66
2022/04/29 01:04:12;;;;;;;7.73;4.33;;;;;;;-142.75;100.00;79088.75;5028716;28;20418;-65
2022/04/29 01:06:37;;;;;;;6.87;3.83;;;;;;;-142.75;100.00;79086.78;5028661;28;20036;-65
2022/04/29 01:09:02;;;;;;;9.65;4.53;;;;;;;-142.75;100.00;79074.97;5031758;28;20596;-66
2022/04/29 01:11:28;;;;;;;7.43;4.30;;;;;;;-142.75;100.00;79067.09;5032348;28;20032;-64
2022/04/29 01:13:54;;;;;;;16.42;4.18;;;;;;;-142.75;100.00;79074.97;5032641;28;20029;-65
2022/04/29 01:16:20;;;;;;;9.67;4.03;;;;;;;-142.75;100.00;79080.88;5033719;28;20467;-66
2022/04/29 01:18:48;;;;;;;7.32;4.32;;;;;;;-142.75;100.00;79074.97;5032643;28;20033;-65
2022/04/29 01:21:13;;;;;;;7.03;4.00;;;;;;;-142.75;100.00;79076.94;5032352;28;20017;-66
2022/04/29 01:23:41;;;;;;;8.75;4.50;;;;;;;-142.75;100.00;79078.91;5032567;28;20398;-66
2022/04/29 01:26:06;;;;;;;10.00;4.10;;;;;;;-142.75;100.00;79080.88;5041855;28;20659;-65
2022/04/29 01:28:33;;;;;;;8.85;4.28;;;;;;;-142.75;100.00;79074.97;5034226;28;20045;-66
2022/04/29 01:30:59;;;;;;;9.60;4.23;;;;;;;-142.75;100.00;79071.03;5049325;28;20075;-65
2022/04/29 01:33:28;;;;;;;9.10;4.40;;;;;;;-142.75;100.00;79074.97;5052200;28;20033;-65
2022/04/29 01:35:54;;;;;;;7.53;4.13;;;;;;;-142.75;100.00;79074.97;5047802;28;20122;-66
2022/04/29 01:38:19;;;;;;;8.57;4.50;;;;;;;-142.75;100.00;79071.03;5032669;28;20025;-65
2022/04/29 01:40:45;;;;;;;13.02;4.95;;;;;;;-142.75;100.00;79073.00;5030905;28;20402;-65
2022/04/29 01:43:10;;;;;;;8.75;4.40;;;;;;;-142.75;100.00;79067.09;5032365;28;20506;-66
2022/04/29 01:45:35;;;;;;;10.23;4.55;;;;;;;-142.75;100.00;79067.09;5033096;28;20033;-65
2022/04/29 01:48:01;;;;;;;9.35;5.07;;;;;;;-142.75;100.00;79059.22;5030911;28;20034;-66
2022/04/29 01:50:26;;;;;;;8.23;4.68;;;;;;;-142.75;100.00;79061.19;5030370;28;20040;-63
2022/04/29 01:52:51;;;;;;;10.70;4.57;;;;;;;-142.75;100.00;79073.00;5031884;28;20024;-65
2022/04/29 01:55:17;;;;;;;8.95;4.32;;;;;;;-142.75;100.00;79082.84;5039611;28;20025;-65
2022/04/29 01:57:44;;;;;;;10.00;4.03;;;;;;;-142.75;100.00;79063.16;5050357;28;20474;-65
2022/04/29 02:00:11;;;;;;;6.93;4.53;;;;;;;-142.75;100.00;79071.03;5050356;28;20032;-65
2022/04/29 02:02:36;;;;;;;9.47;5.13;;;;;;;-142.75;100.00;79074.97;5031531;28;20491;-65
2022/04/29 02:05:01;;;;;;;8.40;4.33;;;;;;;-142.75;100.00;79078.91;5031696;28;20079;-66
2022/04/29 02:07:27;;;;;;;11.13;4.95;;;;;;;-142.75;100.00;79086.78;5031761;28;20276;-65
2022/04/29 02:09:54;;;;;;;12.02;5.07;;;;;;;-142.75;100.00;79092.69;5031746;28;20063;-66
2022/04/29 02:12:19;;;;;;;8.37;4.80;;;;;;;-142.75;100.00;79092.69;5031139;28;20032;-65
2022/04/29 02:14:44;;;;;;;11.40;5.35;;;;;;;-142.75;100.00;79102.56;5030892;28;20022;-66
2022/04/29 02:17:11;;;;;;;13.20;5.30;;;;;;;-142.75;100.00;79104.53;5030870;28;20488;-66
2022/04/29 02:19:37;;;;;;;8.67;5.33;;;;;;;-142.75;100.00;79102.56;5030041;28;20029;-66
2022/04/29 02:22:05;;;;;;;12.97;5.27;;;;;;;-142.75;100.00;79108.47;5030971;28;20092;-64
2022/04/29 02:24:31;;;;;;;11.07;5.30;;;;;;;-142.75;100.00;79116.34;5031221;28;20037;-66
2022/04/29 02:26:59;;;;;;;13.50;5.00;;;;;;;-142.75;100.00;79110.44;5031443;28;20036;-66
2022/04/29 02:29:25;;;;;;;17.00;5.40;;;;;;;-142.75;100.00;79110.44;5031194;28;20112;-65
2022/04/29 02:31:52;;;;;;;10.03;4.93;;;;;;;-142.75;100.00;79110.44;5030966;28;20063;-65
2022/04/29 02:34:17;;;;;;;10.33;4.63;;;;;;;-142.75;100.00;79112.41;5031100;28;20036;-66
2022/04/29 02:36:43;;;;;;;8.50;5.07;;;;;;;-142.75;100.00;79116.34;5031292;28;20025;-66
2022/04/29 02:39:08;;;;;;;10.57;5.25;;;;;;;-142.75;100.00;79100.59;5035390;28;20021;-66
2022/04/29 02:41:35;;;;;;;11.05;6.00;;;;;;;-142.75;100.00;79104.53;5050673;28;20029;-65
2022/04/29 02:44:00;;;;;;;8.33;5.20;;;;;;;-142.75;100.00;79104.53;5050818;28;20435;-66
2022/04/29 02:46:25;;;;;;;8.53;5.07;;;;;;;-142.75;100.00;79106.50;5051818;28;20036;-67
2022/04/29 02:48:51;;;;;;;7.72;4.88;;;;;;;-142.75;100.00;79094.69;5050738;28;20280;-66
2022/04/29 02:51:16;;;;;;;11.77;5.32;;;;;;;-142.75;100.00;79092.69;5040076;28;20044;-66
2022/04/29 02:53:42;;;;;;;9.57;4.82;;;;;;;-142.75;100.00;79090.72;5030896;28;20111;-66
2022/04/29 02:56:08;;;;;;;9.83;5.23;;;;;;;-142.75;100.00;79110.44;5030772;28;20505;-66
2022/04/29 02:58:33;;;;;;;13.18;5.80;;;;;;;-142.75;100.00;79106.50;5029544;28;20026;-66
2022/04/29 03:00:58;;;;;;;10.03;5.30;;;;;;;-142.75;100.00;79094.69;5030486;28;20096;-66
2022/04/29 03:03:24;;;;;;;9.52;5.20;;;;;;;-142.75;100.00;79104.53;5030766;28;20029;-66
2022/04/29 03:05:49;;;;;;;11.65;5.28;;;;;;;-142.75;100.00;79096.66;5030530;28;20029;-64
2022/04/29 03:08:14;;;;;;;14.07;5.47;;;;;;;-142.75;100.00;79104.53;5043690;28;20024;-66
2022/04/29 03:10:40;;;;;;;16.23;5.50;;;;;;;-142.75;100.00;79102.56;5050022;28;20113;-65
2022/04/29 03:13:05;;;;;;;8.13;4.63;;;;;;;-142.75;100.00;79098.63;5049027;28;20028;-66
2022/04/29 03:15:30;;;;;;;14.60;6.10;;;;;;;-142.75;100.00;79104.53;5051197;28;20100;-66
2022/04/29 03:20:41;;;;;;;10.03;5.43;;;;;;;-142.75;100.00;79102.56;5049875;28;20421;-65
2022/04/29 03:23:07;;;;;;;15.67;5.40;;;;;;;-142.75;100.00;79102.56;5030362;28;20032;-66
2022/04/29 03:25:34;;;;;;;9.83;5.10;;;;;;;-142.75;100.00;79104.53;5030117;28;20120;-66
2022/04/29 03:27:59;;;;;;;12.77;5.63;;;;;;;-142.75;100.00;79106.50;5030243;28;20057;-66
2022/04/29 03:30:25;;;;;;;11.57;5.47;;;;;;;-142.75;100.00;79102.56;5029164;28;20053;-64
2022/04/29 03:32:52;;;;;;;10.95;5.47;;;;;;;-142.75;100.00;79102.56;5029911;28;20491;-65
2022/04/29 03:35:17;;;;;;;10.40;5.40;;;;;;;-142.75;100.00;79110.44;5029950;28;20112;-66
2022/04/29 03:37:43;;;;;;;18.52;5.80;;;;;;;-142.75;100.00;79112.41;5030131;28;20108;-66
2022/04/29 03:40:08;;;;;;;10.45;5.38;;;;;;;-142.75;100.00;79114.38;5030054;28;21778;-67
2022/04/29 03:42:34;;;;;;;9.13;5.72;;;;;;;-142.75;100.00;79106.50;5028283;28;20026;-65
2022/04/29 03:44:59;;;;;;;10.25;5.68;;;;;;;-142.75;100.00;79094.69;5030284;28;20025;-66
2022/04/29 03:47:24;;;;;;;8.37;5.40;;;;;;;-142.75;100.00;79092.69;5030337;28;20029;-66
2022/04/29 03:49:50;;;;;;;10.35;5.60;;;;;;;-142.75;100.00;79084.81;5029848;28;20276;-66
2022/04/29 03:52:15;;;;;;;14.45;5.43;;;;;;;-142.75;100.00;79074.97;5029441;28;20018;-66
2022/04/29 03:54:40;;;;;;;11.60;5.20;;;;;;;-142.75;100.00;79067.09;5029550;28;20391;-66
2022/04/29 03:57:06;;;;;;;8.20;4.82;;;;;;;-142.75;100.00;79067.09;5029768;28;20525;-65
2022/04/29 03:59:31;;;;;;;10.70;5.40;;;;;;;-142.75;100.00;79069.06;5029626;28;20410;-65
2022/04/29 04:01:57;;;;;;;9.00;5.13;;;;;;;-142.75;100.00;79074.97;5029276;28;20026;-66
2022/04/29 04:04:22;;;;;;;8.80;5.57;;;;;;;-142.75;100.00;79069.06;5029596;28;20367;-66
2022/04/29 04:06:50;;;;;;;8.05;4.30;;;;;;;-142.75;100.00;79063.16;5029690;28;20024;-66
2022/04/29 04:09:17;;;;;;;7.33;4.20;;;;;;;-142.75;100.00;79061.19;5029534;28;20071;-65
2022/04/29 04:11:42;;;;;;;9.87;4.40;;;;;;;-142.75;100.00;79059.22;5027868;28;20024;-66
2022/04/29 04:14:09;;;;;;;8.02;4.35;;;;;;;-142.75;100.00;79069.06;5029400;28;20029;-66
2022/04/29 04:16:37;;;;;;;9.57;5.50;;;;;;;-142.75;100.00;79076.94;5030119;28;20037;-64
2022/04/29 04:19:03;;;;;;;10.47;5.40;;;;;;;-142.75;100.00;79082.84;5048219;28;20025;-66
2022/04/29 04:21:29;;;;;;;;;;;;;;;-142.75;100.00;79090.72;5049244;28;20104;-66
2022/04/29 04:23:54;;;;;;;13.67;4.60;;;;;;;-142.75;100.00;79090.72;5048818;28;19936;-65
2022/04/29 04:26:20;;;;;;;9.60;5.57;;;;;;;-142.75;100.00;79090.72;5048879;28;20031;-65
2022/04/29 04:28:45;;;;;;;8.23;5.10;;;;;;;-142.75;100.00;79094.69;5047737;28;20024;-66
2022/04/29 04:31:11;;;;;;;14.10;5.80;;;;;;;-142.75;100.00;79098.63;5048674;28;20181;-65
2022/04/29 04:33:36;;;;;;;10.40;5.25;;;;;;;-142.75;100.00;79094.69;5048708;28;20036;-65
2022/04/29 04:36:04;;;;;;;12.65;5.43;;;;;;;-142.75;100.00;79090.72;5048743;28;20083;-65
2022/04/29 04:38:30;;;;;;;10.13;4.93;;;;;;;-142.75;100.00;79098.63;5029082;28;20036;-66
2022/04/29 04:40:55;;;;;;;9.40;4.77;;;;;;;-142.75;100.00;79100.59;5028805;28;20032;-65
2022/04/29 04:43:21;;;;;;;9.15;4.78;;;;;;;-142.75;100.00;79102.56;5026935;28;20025;-65
2022/04/29 04:45:48;;;;;;;8.70;4.90;;;;;;;-142.75;100.00;79100.59;5029824;28;20032;-65
2022/04/29 04:48:13;;;;;;;7.87;4.50;;;;;;;-142.75;100.00;79088.75;5046253;28;20040;-65
2022/04/29 04:50:38;;;;;;;15.43;5.03;;;;;;;-142.75;100.00;79098.63;5047116;28;20016;-65
2022/04/29 04:53:04;;;;;;;11.00;4.97;;;;;;;-142.75;100.00;79098.63;5048574;28;20029;-65
2022/04/29 04:55:29;;;;;;;7.63;4.37;;;;;;;-142.75;100.00;79098.63;5048578;28;20354;-65
2022/04/29 04:57:54;;;;;;;8.20;4.83;;;;;;;-142.75;100.00;79118.31;5048689;28;20297;-65
2022/04/29 05:00:20;;;;;;;13.02;5.10;;;;;;;-142.75;100.00;79112.41;5048242;28;20340;-64
2022/04/29 05:02:46;;;;;;;;;;;;;;;-142.75;100.00;79112.41;5048715;28;20120;-65
2022/04/29 05:05:11;;;;;;;8.93;4.53;;;;;;;-142.75;100.00;79126.19;5048431;28;19999;-65
2022/04/29 05:07:38;;;;;;;10.52;4.97;;;;;;;-142.75;100.00;79126.19;5048495;28;20029;-65
2022/04/29 05:10:08;;;;;;;14.40;6.10;;;;;;;-142.75;100.00;79122.25;5043935;28;20179;-64
2022/04/29 05:12:42;;;;;;;10.67;5.37;;;;;;;-142.75;100.00;79118.31;5026963;28;20036;-65
2022/04/29 05:15:08;;;;;;;12.33;5.30;;;;;;;-142.75;100.00;79112.41;5027761;28;20025;-66
2022/04/29 05:17:33;;;;;;;;;;;;;;;-142.75;100.00;79102.56;5029817;28;20079;-66
2022/04/29 05:19:59;;;;;;;8.60;4.67;;;;;;;-142.75;100.00;79086.78;5028440;28;20255;-65
2022/04/29 05:22:24;;;;;;;11.38;5.32;;;;;;;-142.75;100.00;79102.56;5028348;28;20025;-66
2022/04/29 05:24:49;;;;;;;9.23;5.13;;;;;;;-142.75;100.00;79092.69;5047214;28;20024;-66
2022/04/29 05:27:14;;;;;;;9.07;5.17;;;;;;;-142.75;100.00;79082.84;5048166;28;20648;-66
2022/04/29 05:29:40;;;;;;;10.45;5.05;;;;;;;-142.75;100.00;79082.84;5047018;28;20031;-66
2022/04/29 05:32:07;;;;;;;12.20;5.55;;;;;;;-142.75;100.00;79073.00;5045974;28;20534;-66
2022/04/29 05:34:33;;;;;;;15.37;6.23;;;;;;;-142.75;100.00;79055.28;5046035;28;20041;-65
2022/04/29 05:36:59;;;;;;;9.00;5.87;;;;;;;-142.75;100.00;79045.44;5047548;28;20021;-66
2022/04/29 05:42:15;;;;;;;11.97;5.27;;;;;;;-142.75;100.00;79027.69;5047132;28;19923;-65
2022/04/29 05:44:41;;;;;;;9.83;5.40;;;;;;;-142.75;100.00;79011.94;5047531;28;21665;-65
2022/04/29 05:47:07;;;;;;;13.50;5.00;;;;;;;-142.75;100.00;79008.00;5048130;28;20043;-65
2022/04/29 05:49:32;;;;;;;11.57;4.82;;;;;;;-142.75;100.00;79013.91;5046218;28;20052;-67
2022/04/29 05:52:02;;;;;;;8.32;4.97;;;;;;;-142.75;100.00;79011.94;5047022;28;20025;-67
2022/04/29 05:54:28;;;;;;;13.73;5.33;;;;;;;-142.75;100.00;79011.94;5048846;28;20017;-67
2022/04/29 05:56:53;;;;;;;13.18;4.88;;;;;;;-142.75;100.00;79011.94;5050304;28;20056;-66
2022/04/29 05:59:19;;;;;;;9.18;4.97;;;;;;;-142.75;100.00;79009.97;5050373;28;20111;-65
2022/04/29 06:01:44;;;;;;;11.57;4.95;;;;;;;-142.75;100.00;79019.81;5050134;28;20025;-65
2022/04/29 06:04:10;;;;;;;10.88;4.75;;;;;;;-142.75;100.00;79006.03;5048792;28;20033;-65
2022/04/29 06:06:36;;;;;;;13.93;5.53;;;;;;;-142.75;100.00;78994.22;5048382;28;20041;-65
2022/04/29 06:09:01;;;;;;;12.47;4.93;;;;;;;-142.75;100.00;79004.06;5028246;28;20425;-64
2022/04/29 06:11:26;;;;;;;11.20;4.75;;;;;;;-142.75;100.00;79000.13;5029426;28;20359;-65
2022/04/29 06:13:53;;;;;;;10.32;4.65;;;;;;;-142.75;100.00;78996.19;5029270;28;20112;-64
2022/04/29 06:16:18;;;;;;;12.30;4.87;;;;;;;-142.75;100.00;78998.16;5030310;28;20022;-64
2022/04/29 06:18:44;;;;;;;11.35;4.95;;;;;;;-142.75;100.00;78980.44;5029319;28;20035;-65
2022/04/29 06:21:09;;;;;;;13.98;5.47;;;;;;;-142.75;100.00;78984.38;5029116;28;20099;-64
2022/04/29 06:23:35;;;;;;;15.00;5.10;;;;;;;-142.75;100.00;78964.69;5046418;28;20040;-65
2022/04/29 06:26:00;;;;;;;7.70;4.20;;;;;;;-142.75;100.00;78974.53;5048573;28;20279;-64
2022/04/29 06:28:25;;;;;;;11.27;5.03;;;;;;;-142.75;100.00;78960.72;5047446;28;20128;-64
2022/04/29 06:30:51;;;;;;;9.75;4.72;;;;;;;-142.75;100.00;78931.19;5047137;28;20032;-65
2022/04/29 06:33:16;;;;;;;9.27;4.80;;;;;;;-142.75;100.00;78937.09;5029698;28;20079;-65
2022/04/29 06:35:44;;;;;;;12.02;4.88;;;;;;;-142.75;100.00;78929.22;5029108;28;20108;-65
2022/04/29 06:38:10;;;;;;;11.23;5.10;;;;;;;-142.75;100.00;78911.50;5029231;28;20084;-65
2022/04/29 06:40:35;;;;;;;10.27;5.05;;;;;;;-142.75;100.00;78881.94;5027507;28;20049;-65
2022/04/29 06:43:01;;;;;;;12.20;4.75;;;;;;;-142.75;100.00;78866.19;5027467;28;20108;-65
2022/04/29 06:45:26;;;;;;;10.82;4.68;;;;;;;-142.75;100.00;78878.00;5029143;28;20102;-65
2022/04/29 06:47:51;;;;;;;9.60;4.78;;;;;;;-142.75;100.00;78864.22;5027809;28;20030;-65
2022/04/29 06:50:17;;;;;;;11.40;4.90;;;;;;;-142.75;100.00;78870.13;5028479;28;20024;-64
2022/04/29 06:52:42;;;;;;;11.65;4.32;;;;;;;-142.75;100.00;78881.94;5028198;28;20437;-65
2022/04/29 06:55:08;;;;;;;11.45;4.75;;;;;;;-142.75;100.00;78866.19;5027172;28;20116;-64
2022/04/29 06:57:34;;;;;;;13.50;4.82;;;;;;;-142.75;100.00;78854.38;5028142;28;20040;-65
2022/04/29 07:00:00;;;;;;;8.63;4.40;;;;;;;-142.75;100.00;78874.06;5028350;28;20060;-64
2022/04/29 07:02:25;;;;;;;11.52;5.18;;;;;;;-142.75;100.00;78850.44;5027466;28;20053;-64
2022/04/29 07:04:52;;;;;;;15.68;4.88;;;;;;;-142.75;100.00;78842.56;5027828;28;20022;-63
2022/04/29 07:07:18;;;;;;;8.37;4.20;;;;;;;-142.75;100.00;78834.69;5026556;28;20402;-66
2022/04/29 07:09:43;;;;;;;10.00;4.55;;;;;;;-142.75;100.00;78814.97;5028000;28;20025;-65
2022/04/29 07:12:09;;;;;;;11.50;5.22;;;;;;;-142.75;100.00;78830.75;5027821;28;20079;-65
2022/04/29 07:14:35;;;;;;;9.93;4.90;;;;;;;-142.75;100.00;78811.03;5028076;28;20037;-65
2022/04/29 07:17:00;;;;;;;11.15;4.82;;;;;;;-142.75;100.00;78803.16;5028845;28;20029;-64
2022/04/29 07:19:25;;;;;;;12.27;5.05;;;;;;;-142.75;100.00;78787.41;5027752;28;20033;-65
2022/04/29 07:21:51;;;;;;;11.35;5.30;;;;;;;-142.75;100.00;78797.25;5027699;28;20490;-64
2022/04/29 07:24:16;;;;;;;9.70;4.50;;;;;;;-142.75;100.00;78803.16;5026729;28;20025;-64
2022/04/29 07:26:42;;;;;;;10.13;4.40;;;;;;;-142.75;100.00;78797.25;5042575;28;20063;-64
2022/04/29 07:29:07;;;;;;;12.23;5.15;;;;;;;-142.75;100.00;78807.09;5041277;28;20467;-64
2022/04/29 07:31:33;;;;;;;12.88;5.50;;;;;;;-142.75;100.00;78795.28;5026370;28;20091;-64
2022/04/29 07:33:58;;;;;;;13.15;5.18;;;;;;;-142.75;100.00;78797.25;5027644;28;20523;-65
2022/04/29 07:41:51;;;;;;;10.33;4.93;;;;;;;-142.75;100.00;78797.25;5046700;28;20512;-64
2022/04/29 07:44:17;;;;;;;10.77;4.93;;;;;;;-142.75;100.00;78803.16;5045531;28;20029;-64
2022/04/29 07:46:45;;;;;;;11.63;4.80;;;;;;;-142.75;100.00;78799.22;5047844;28;20031;-65
2022/04/29 07:49:11;;;;;;;11.40;5.00;;;;;;;-142.75;100.00;78801.19;5038000;28;20029;-66
2022/04/29 07:51:37;;;;;;;;;;;;;;;-142.75;100.00;78811.03;5030064;28;20437;-64
2022/04/29 07:54:03;;;;;;;14.37;5.23;;;;;;;-142.75;100.00;78813.00;5043160;28;19917;-65
2022/04/29 07:56:29;;;;;;;8.47;4.93;;;;;;;-142.75;100.00;78781.50;5027729;28;20029;-65
2022/04/29 07:58:55;;;;;;;11.95;5.13;;;;;;;-142.75;100.00;78777.56;5027509;28;20083;-64
2022/04/29 08:01:21;;;;;;;8.33;5.10;;;;;;;-142.75;100.00;78773.63;5032381;28;20037;-66
2022/04/29 08:03:46;;;;;;;13.43;4.72;;;;;;;-142.75;100.00;78769.69;5028288;28;20097;-65
2022/04/29 08:06:11;;;;;;;12.23;5.65;;;;;;;-142.75;100.00;78781.50;5044622;28;20028;-66
2022/04/29 08:08:39;;;;;;;8.50;4.97;;;;;;;-142.75;100.00;78791.34;5027800;28;20037;-64
2022/04/29 08:11:06;;;;;;;13.83;5.00;;;;;;;-142.75;100.00;78801.19;5027395;28;20025;-65
2022/04/29 08:13:31;;;;;;;9.87;4.70;;;;;;;-142.75;100.00;78814.97;5027395;28;20025;-65
2022/04/29 08:16:01;;;;;;;9.13;4.70;;;;;;;-142.75;100.00;78824.84;5046751;28;20469;-65
2022/04/29 08:18:26;;;;;;;11.73;4.47;;;;;;;-142.75;100.00;78826.81;5046977;28;20033;-65
2022/04/29 08:20:52;;;;;;;10.43;4.50;;;;;;;-142.75;100.00;78820.88;5045970;28;20146;-65
2022/04/29 08:23:18;;;;;;;13.70;5.00;;;;;;;-142.75;100.00;78818.91;5045309;28;20045;-65
2022/04/29 08:25:44;;;;;;;10.55;5.30;;;;;;;-142.75;100.00;78811.03;5045657;28;20111;-66
2022/04/29 08:28:09;;;;;;;12.75;4.63;;;;;;;-142.75;100.00;78814.97;5038743;28;20107;-65
2022/04/29 08:30:35;;;;;;;11.38;5.40;;;;;;;-142.75;100.00;78799.22;5032444;28;20036;-65
2022/04/29 08:33:01;;;;;;;12.15;4.57;;;;;;;-142.75;100.00;78805.13;5045912;28;20025;-65
2022/04/29 08:35:28;;;;;;;16.15;4.82;;;;;;;-142.75;100.00;78813.00;5046842;28;20039;-65
2022/04/29 08:37:54;;;;;;;7.13;4.63;;;;;;;-142.75;100.00;78811.03;5034053;28;20490;-66
2022/04/29 08:40:20;;;;;;;12.47;4.93;;;;;;;-142.75;100.00;78799.22;5025703;28;20052;-65
2022/04/29 08:42:46;;;;;;;12.40;4.80;;;;;;;-142.75;100.00;78793.31;5037729;28;20457;-65
2022/04/29 08:45:15;;;;;;;10.93;4.60;;;;;;;-142.75;100.00;78777.56;5026845;28;20147;-64
2022/04/29 08:47:43;;;;;;;11.10;4.47;;;;;;;-142.75;100.00;78763.78;5029475;28;20025;-65
2022/04/29 08:50:11;;;;;;;11.18;4.60;;;;;;;-142.75;100.00;78751.97;5040765;28;20122;-65
2022/04/29 08:52:37;;;;;;;13.63;5.10;;;;;;;-142.75;100.00;78744.09;5027849;28;20113;-64
2022/04/29 09:00:33;;;;;;;12.02;4.70;;;;;;;-142.75;100.00;78744.09;5038658;28;20168;-65
2022/04/29 09:03:00;;;;;;;12.32;5.45;;;;;;;-142.75;100.00;78736.19;5046845;28;20558;-66
2022/04/29 09:05:26;;;;;;;7.57;4.65;;;;;;;-142.75;100.00;78732.25;5046771;28;20061;-65
2022/04/29 09:08:00;;;;;;;13.15;4.63;;;;;;;-142.75;100.00;78712.56;5036526;28;20410;-66
2022/04/29 09:10:28;;;;;;;12.07;4.38;;;;;;;-142.75;100.00;78704.69;5027548;28;20486;-65
2022/04/29 09:12:54;;;;;;;12.18;4.53;;;;;;;-142.75;100.00;78700.75;5027533;28;20080;-66
2022/04/29 09:15:19;;;;;;;9.68;4.82;;;;;;;-142.75;100.00;78704.69;5026867;28;20026;-65
2022/04/29 09:17:47;;;;;;;11.65;4.35;;;;;;;-142.75;100.00;78700.75;5027192;28;20017;-64
2022/04/29 09:20:19;;;;;;;9.27;4.88;;;;;;;-142.75;100.00;78685.00;5028161;28;20506;-65
2022/04/29 09:22:54;;;;;;;15.15;4.75;;;;;;;-142.75;100.00;78679.09;5036832;28;20116;-64
2022/04/29 09:25:20;;;;;;;16.90;4.72;;;;;;;-142.75;100.00;78669.25;5028140;28;20029;-65
2022/04/29 09:27:54;;;;;;;10.45;4.68;;;;;;;-142.75;100.00;78681.06;5028162;28;20441;-64
2022/04/29 09:30:37;;;;;;;9.27;3.80;;;;;;;-142.75;100.00;78694.84;5031544;28;20040;-65
2022/04/29 09:33:03;;;;;;;7.47;4.13;;;;;;;-142.75;100.00;78685.00;5032768;28;20394;-66
2022/04/29 09:35:39;;;;;;;6.13;3.72;;;;;;;-142.75;100.00;78673.19;5049667;28;20044;-66
2022/04/29 09:40:49;;;;;;;9.18;3.88;;;;;;;-142.75;100.00;78665.28;5031848;28;20169;-66
2022/04/29 09:43:14;;;;;;;6.20;3.90;;;;;;;-142.75;100.00;78661.34;5030144;28;20045;-66
2022/04/29 09:45:39;;;;;;;9.83;3.50;;;;;;;-142.75;100.00;78649.53;5031574;28;20025;-65
2022/04/29 09:48:08;;;;;;;14.68;4.63;;;;;;;-142.75;100.00;78641.66;5032953;28;20291;-65
2022/04/29 09:50:50;;;;;;;12.85;3.80;;;;;;;-142.75;100.00;78627.88;5030536;28;20087;-66
2022/04/29 09:53:26;;;;;;;10.27;4.82;;;;;;;-142.75;100.00;78637.72;5029805;28;20637;-65
2022/04/29 09:56:11;;;;;;;9.95;4.25;;;;;;;-142.75;100.00;78649.53;5029088;28;20037;-64
2022/04/29 09:58:37;;;;;;;12.00;4.47;;;;;;;-142.75;100.00;78641.66;5050224;28;20029;-65
2022/04/29 10:01:04;;;;;;;5.95;3.53;;;;;;;-142.75;100.00;78659.38;5050364;28;20466;-66
2022/04/29 10:03:30;;;;;;;6.93;3.65;;;;;;;-142.75;100.00;78653.47;5040146;28;20394;-66
2022/04/29 10:05:57;;;;;;;14.88;4.63;;;;;;;-142.75;100.00;78618.03;5033085;28;20028;-66
2022/04/29 10:08:25;;;;;;;5.60;3.78;;;;;;;-142.75;100.00;78602.28;5039636;28;20116;-66
2022/04/29 10:10:52;;;;;;;11.40;4.28;;;;;;;-142.75;100.00;78596.38;5032776;28;20544;-66
2022/04/29 10:13:21;;;;;;;11.40;4.32;;;;;;;-142.75;100.00;78614.09;5032669;28;20382;-66
2022/04/29 10:15:46;;;;;;;7.03;4.15;;;;;;;-142.75;100.00;78616.06;5031641;28;20498;-67
2022/04/29 10:21:18;;;;;;;7.93;4.10;;;;;;;-142.75;100.00;78582.59;5032696;28;20098;-66
2022/04/29 10:23:49;;;;;;;11.35;4.40;;;;;;;-142.75;100.00;78566.81;5052354;28;20040;-66
2022/04/29 10:26:21;;;;;;;8.02;4.18;;;;;;;-142.75;100.00;78570.75;5053470;28;20085;-66
2022/04/29 10:28:48;;;;;;;7.15;4.18;;;;;;;-142.75;100.00;78531.38;5052525;28;20032;-66
2022/04/29 10:31:19;;;;;;;7.38;4.07;;;;;;;-142.75;100.00;78517.59;5052169;28;20029;-66
2022/04/29 10:33:45;;;;;;;11.60;5.18;;;;;;;-142.75;100.00;78493.97;5052209;28;20390;-66
2022/04/29 10:36:14;;;;;;;11.15;4.70;;;;;;;-142.75;100.00;78507.75;5050840;28;20048;-66
2022/04/29 10:38:42;;;;;;;12.18;4.53;;;;;;;-142.75;100.00;78495.94;5034625;28;20048;-65
2022/04/29 10:41:24;;;;;;;9.30;4.13;;;;;;;-142.75;100.00;78488.03;5049130;28;20043;-65
2022/04/29 10:43:50;;;;;;;10.18;4.20;;;;;;;-142.75;100.00;78466.38;5036669;28;20022;-66
2022/04/29 10:46:30;;;;;;;12.23;4.50;;;;;;;-142.75;100.00;78438.81;5032784;28;20143;-65
2022/04/29 10:48:55;;;;;;;11.27;4.68;;;;;;;-142.75;100.00;78434.88;5032216;28;20276;-66
2022/04/29 10:51:43;;;;;;;7.90;4.25;;;;;;;-142.75;100.00;78470.31;5031910;28;20026;-66
2022/04/29 10:54:11;;;;;;;8.65;4.60;;;;;;;-142.75;100.00;78460.47;5045834;28;20091;-66
2022/04/29 10:56:38;;;;;;;8.63;4.47;;;;;;;-142.75;100.00;78470.31;5032388;28;20036;-66
2022/04/29 10:59:09;;;;;;;;;;;;;;;-142.75;100.00;78476.22;5032460;28;20175;-65
2022/04/29 11:01:36;;;;;;;8.95;4.55;;;;;;;-142.75;100.00;78490.00;5031699;28;19928;-65
2022/04/29 11:04:05;;;;;;;9.30;4.70;;;;;;;-142.75;100.00;78488.03;5050659;28;20020;-66
2022/04/29 11:06:37;;;;;;;7.75;4.78;;;;;;;-142.75;100.00;78476.22;5051812;28;20078;-66
2022/04/29 11:09:22;;;;;;;8.55;4.95;;;;;;;-142.75;100.00;78478.19;5051571;28;20025;-65
2022/04/29 11:11:48;;;;;;;10.35;4.63;;;;;;;-142.75;100.00;78442.75;5051402;28;20111;-65
2022/04/29 11:14:13;;;;;;;10.20;4.05;;;;;;;-142.75;100.00;78405.34;5051734;28;20593;-66
2022/04/29 11:17:07;;;;;;;9.70;4.65;;;;;;;-142.75;100.00;78381.69;5052127;28;20041;-65
2022/04/29 11:19:40;;;;;;;6.72;4.22;;;;;;;-142.75;100.00;78375.78;5051722;28;20036;-65
2022/04/29 11:24:52;;;;;;;9.40;4.28;;;;;;;-142.75;100.00;78326.56;5051491;28;20536;-66
2022/04/29 11:27:33;;;;;;;6.53;4.25;;;;;;;-142.75;100.00;78304.91;5051271;28;20103;-66
2022/04/29 11:30:02;;;;;;;9.63;4.60;;;;;;;-142.75;100.00;78281.25;5049837;28;20777;-65